createdAt,value
2018-05-18T00:01:48.976Z,5.41
2018-05-18T00:07:43.930Z,4.84
2018-05-18T00:13:38.944Z,4.97
2018-05-18T00:19:33.998Z,6.14
2018-05-18T00:25:28.939Z,4.85
2018-05-18T00:31:23.924Z,4
2018-05-18T00:37:18.970Z,4.14
2018-05-18T00:43:13.964Z,5.16
2018-05-18T00:49:08.985Z,4.72
2018-05-18T00:55:04.001Z,3.57
2018-05-18T01:00:59.000Z,5.26
2018-05-18T01:06:53.968Z,5.79
2018-05-18T01:12:48.972Z,4.97
2018-05-18T01:18:43.965Z,4.81
2018-05-18T01:24:38.973Z,5.04
2018-05-18T01:30:34.004Z,3.75
2018-05-18T01:36:28.968Z,3.42
2018-05-18T01:42:24.082Z,4.56
2018-05-18T01:48:18.991Z,3.73
2018-05-18T01:54:13.971Z,4.36
2018-05-18T02:00:09.067Z,4.27
2018-05-18T02:06:04.004Z,4.13
2018-05-18T02:11:59.009Z,4.55
2018-05-18T02:17:53.999Z,5.21
2018-05-18T02:23:49.027Z,7.15
2018-05-18T02:29:44.008Z,6.56
2018-05-18T02:35:39.116Z,6
2018-05-18T02:41:34.052Z,5.71
2018-05-18T02:47:29.020Z,7.14
2018-05-18T02:53:24.036Z,6.55
2018-05-18T02:59:19.045Z,6.4
2018-05-18T03:05:14.047Z,6.91
2018-05-18T03:11:09.017Z,7.65
2018-05-18T03:17:04.035Z,6.67
2018-05-18T03:22:59.035Z,6.54
2018-05-18T03:28:54.036Z,6.87
2018-05-18T03:34:49.083Z,6.63
2018-05-18T03:40:44.082Z,7.85
2018-05-18T03:46:39.036Z,8.3
2018-05-18T03:52:34.057Z,7.96
2018-05-18T03:58:29.068Z,7.11
2018-05-18T04:04:24.048Z,7.39
2018-05-18T04:10:19.126Z,7.29
2018-05-18T04:16:14.103Z,7.25
2018-05-18T04:22:09.068Z,6.65
2018-05-18T04:28:04.076Z,6.51
2018-05-18T04:33:59.100Z,9.3
2018-05-18T04:39:54.187Z,7.72
2018-05-18T04:45:49.067Z,7.5
2018-05-18T04:51:44.084Z,8.35
2018-05-18T04:57:39.096Z,8.13
2018-05-18T05:03:34.114Z,7.04
2018-05-18T05:09:29.104Z,5.11
2018-05-18T05:15:24.097Z,5.08
2018-05-18T05:21:19.126Z,4.74
2018-05-18T05:27:14.133Z,5.93
2018-05-18T05:33:09.118Z,5.21
2018-05-18T05:39:04.094Z,5.79
2018-05-18T05:44:59.185Z,5.9
2018-05-18T05:50:54.140Z,5.63
2018-05-18T05:56:49.140Z,6.77
2018-05-18T06:02:44.104Z,7.16
2018-05-18T06:08:39.157Z,8.36
2018-05-18T06:14:34.158Z,8.32
2018-05-18T06:20:29.227Z,9.48
2018-05-18T06:26:24.148Z,9.83
2018-05-18T06:32:19.143Z,9.26
2018-05-18T06:38:14.173Z,9.76
2018-05-18T06:44:09.164Z,10.61
2018-05-18T06:50:04.148Z,10.17
2018-05-18T06:55:59.153Z,11.17
2018-05-18T07:01:54.168Z,11.06
2018-05-18T07:07:49.157Z,12.34
2018-05-18T07:13:44.135Z,14.31
2018-05-18T07:19:39.192Z,16.45
2018-05-18T07:25:34.185Z,13.1
2018-05-18T07:31:29.161Z,11.42
2018-05-18T07:37:24.167Z,12.55
2018-05-18T07:43:19.231Z,12.13
2018-05-18T07:49:14.182Z,10.82
2018-05-18T07:55:09.194Z,9.71
2018-05-18T08:01:04.175Z,10.54
2018-05-18T08:06:59.159Z,10.88
2018-05-18T08:12:54.171Z,11.08
2018-05-18T08:18:49.188Z,8.46
2018-05-18T08:24:44.186Z,8.28
2018-05-18T08:30:39.207Z,7.76
2018-05-18T08:36:34.215Z,7.22
2018-05-18T08:42:29.187Z,6.42
2018-05-18T08:48:24.265Z,7.16
2018-05-18T08:54:19.213Z,7
2018-05-18T09:00:14.247Z,6.54
2018-05-18T09:06:09.241Z,6.14
2018-05-18T09:12:04.224Z,5.4
2018-05-18T09:17:59.217Z,6.11
2018-05-18T09:23:54.247Z,5.35
2018-05-18T09:29:49.223Z,5.6
2018-05-18T09:35:44.233Z,5.16
2018-05-18T09:41:39.344Z,5.13
2018-05-18T09:47:34.264Z,5.34
2018-05-18T09:53:29.283Z,4.16
2018-05-18T09:59:24.226Z,5.01
2018-05-18T10:05:19.283Z,4.38
2018-05-18T10:11:14.244Z,3.23
2018-05-18T10:17:09.246Z,3.86
2018-05-18T10:23:04.233Z,3.32
2018-05-18T10:28:59.261Z,3.81
2018-05-18T10:34:54.254Z,3.18
2018-05-18T10:40:49.243Z,2.98
2018-05-18T10:46:44.303Z,2.7
2018-05-18T10:52:39.260Z,2.59
2018-05-18T10:58:34.299Z,2.43
2018-05-18T11:04:29.280Z,1.98
2018-05-18T11:10:24.380Z,1.66
2018-05-18T11:16:19.272Z,1.23
2018-05-18T11:22:14.316Z,1.29
2018-05-18T11:28:09.271Z,1.34
2018-05-18T11:34:04.363Z,1.3
2018-05-18T11:39:59.319Z,1.29
2018-05-18T11:45:54.285Z,1.08
2018-05-18T11:51:49.321Z,0.88
2018-05-18T11:57:44.310Z,0.93
2018-05-18T12:03:39.304Z,0.87
2018-05-18T12:09:34.316Z,0.89
2018-05-18T12:15:29.354Z,0.87
2018-05-18T12:21:24.304Z,0.78
2018-05-18T12:27:19.386Z,1.1
2018-05-18T12:33:14.333Z,1.07
2018-05-18T12:39:09.343Z,0.93
2018-05-18T12:45:04.321Z,1.53
2018-05-18T12:50:59.332Z,1.18
2018-05-18T12:56:54.343Z,0.88
2018-05-18T13:02:49.335Z,0.7
2018-05-18T13:08:44.334Z,0.66
2018-05-18T13:14:39.349Z,0.67
2018-05-18T13:20:34.358Z,0.7
2018-05-18T13:26:29.367Z,0.75
2018-05-18T13:32:24.351Z,0.75
2018-05-18T13:38:19.353Z,0.66
2018-05-18T13:44:14.389Z,0.5
2018-05-18T13:50:09.345Z,0.55
2018-05-18T13:56:04.376Z,0.64
2018-05-18T14:01:59.385Z,0.55
2018-05-18T14:07:54.431Z,0.73
2018-05-18T14:13:49.372Z,0.61
2018-05-18T14:19:44.416Z,0.79
2018-05-18T14:25:39.393Z,0.78
2018-05-18T14:31:34.427Z,0.78
2018-05-18T14:37:29.392Z,0.83
2018-05-18T14:43:24.422Z,0.82
2018-05-18T14:49:19.404Z,0.86
2018-05-18T14:55:14.398Z,0.81
2018-05-18T15:01:09.396Z,1.07
2018-05-18T15:07:04.421Z,0.91
2018-05-18T15:12:59.487Z,1.01
2018-05-18T15:18:54.441Z,1.03
2018-05-18T15:24:49.439Z,0.9
2018-05-18T15:30:44.513Z,1.05
2018-05-18T15:36:39.492Z,1.02
2018-05-18T15:42:34.435Z,0.88
2018-05-18T15:48:29.474Z,1.12
2018-05-18T15:54:24.433Z,1.16
2018-05-18T16:00:19.448Z,0.91
2018-05-18T16:06:14.438Z,1.01
2018-05-18T16:12:09.474Z,1.04
2018-05-18T16:18:04.790Z,1.05
2018-05-18T16:23:59.499Z,0.96
2018-05-18T16:29:55.085Z,0.93
2018-05-18T16:35:49.492Z,3.1
2018-05-18T16:41:44.504Z,2.63
2018-05-18T16:47:39.530Z,3.58
2018-05-18T16:53:34.462Z,2.2
2018-05-18T16:59:29.515Z,3.07
2018-05-18T17:05:24.518Z,2.62
2018-05-18T17:11:19.554Z,3
2018-05-18T17:17:14.523Z,17.59
2018-05-18T17:23:09.778Z,3.61
2018-05-18T17:29:04.495Z,1.47
2018-05-18T17:34:59.529Z,1.84
2018-05-18T17:40:54.551Z,1.88
2018-05-18T17:46:49.519Z,1.67
2018-05-18T17:52:44.499Z,1.89
2018-05-18T17:58:39.510Z,2.25
2018-05-18T18:04:34.500Z,1.99
2018-05-18T18:10:29.522Z,2.35
2018-05-18T18:16:24.591Z,2.29
2018-05-18T18:22:19.585Z,2.27
2018-05-18T18:28:14.543Z,2.04
2018-05-18T18:34:09.539Z,2.03
2018-05-18T18:40:04.577Z,1.97
2018-05-18T18:45:59.573Z,2.37
2018-05-18T18:51:54.529Z,2.35
2018-05-18T18:57:49.548Z,2.23
2018-05-18T19:03:44.559Z,1.9
2018-05-18T19:09:39.605Z,2.17
2018-05-18T19:15:34.591Z,2.38
2018-05-18T19:21:29.599Z,2.6
2018-05-18T19:27:24.609Z,2.31
2018-05-18T19:33:19.592Z,2.74
2018-05-18T19:39:14.601Z,3.07
2018-05-18T19:45:09.643Z,2.63
2018-05-18T19:51:04.641Z,2.22
2018-05-18T19:56:59.585Z,2.77
2018-05-18T20:02:54.589Z,2.26
2018-05-18T20:08:49.788Z,2.8
2018-05-18T20:14:44.597Z,3.09
2018-05-18T20:20:39.632Z,3.11
2018-05-18T20:26:34.618Z,2.74
2018-05-18T20:32:29.646Z,3.13
2018-05-18T20:38:24.653Z,4.55
2018-05-18T20:44:19.668Z,5.68
2018-05-18T20:50:14.608Z,5.3
2018-05-18T20:56:09.662Z,7.23
2018-05-18T21:02:04.661Z,6.96
2018-05-18T21:07:59.647Z,6.98
2018-05-18T21:13:54.637Z,8.29
2018-05-18T21:19:49.655Z,8.07
2018-05-18T21:25:44.638Z,8.08
2018-05-18T21:31:39.639Z,7.95
2018-05-18T21:37:34.654Z,11.35
2018-05-18T21:43:29.618Z,14.05
2018-05-18T21:49:24.683Z,13.97
2018-05-18T21:55:19.651Z,15.7
2018-05-18T22:01:14.643Z,13.86
2018-05-18T22:07:09.657Z,12.87
2018-05-18T22:13:04.662Z,10.93
2018-05-18T22:18:59.688Z,9.11
2018-05-18T22:24:54.680Z,9.34
2018-05-18T22:30:49.709Z,12.27
2018-05-18T22:36:44.681Z,15.35
2018-05-18T22:42:39.684Z,14.88
2018-05-18T22:48:34.700Z,14.66
2018-05-18T22:54:29.702Z,15.39
2018-05-18T23:00:24.735Z,13.82
2018-05-18T23:06:19.709Z,10.2
2018-05-18T23:12:14.743Z,10.19
2018-05-18T23:18:09.718Z,8.54
2018-05-18T23:24:04.709Z,6.92
2018-05-18T23:29:59.701Z,6.1
2018-05-18T23:35:54.765Z,6.71
2018-05-18T23:41:49.744Z,6.86
2018-05-18T23:47:44.730Z,7.11
2018-05-18T23:53:39.750Z,7.28
2018-05-18T23:59:34.756Z,6.02
